sensor_id;sensor_type;location;lat;lon;timestamp;pressure;altitude;pressure_sealevel;temperature
70819;BMP280;58439;51.046;13.692;2022-10-19T00:01:23;101169.72;;;12.09
70819;BMP280;58439;51.046;13.692;2022-10-19T00:03:54;101162.44;;;11.97
70819;BMP280;58439;51.046;13.692;2022-10-19T00:06:31;101165.63;;;11.84
70819;BMP280;58439;51.046;13.692;2022-10-19T00:09:04;101165.34;;;11.79
70819;BMP280;58439;51.046;13.692;2022-10-19T00:11:33;101169.16;;;11.68
70819;BMP280;58439;51.046;13.692;2022-10-19T00:14:02;101172.31;;;11.64
70819;BMP280;58439;51.046;13.692;2022-10-19T00:16:34;101167.38;;;11.60
70819;BMP280;58439;51.046;13.692;2022-10-19T00:19:07;101168.44;;;11.51
70819;BMP280;58439;51.046;13.692;2022-10-19T00:21:35;101171.22;;;11.42
70819;BMP280;58439;51.046;13.692;2022-10-19T00:24:03;101169.31;;;11.36
70819;BMP280;58439;51.046;13.692;2022-10-19T00:26:31;101173.38;;;11.30
70819;BMP280;58439;51.046;13.692;2022-10-19T00:28:59;101165.41;;;11.23
70819;BMP280;58439;51.046;13.692;2022-10-19T00:31:27;101163.28;;;11.19
70819;BMP280;58439;51.046;13.692;2022-10-19T00:33:56;101173.28;;;11.15
70819;BMP280;58439;51.046;13.692;2022-10-19T00:36:31;101173.94;;;11.09
70819;BMP280;58439;51.046;13.692;2022-10-19T00:39:00;101178.22;;;11.02
70819;BMP280;58439;51.046;13.692;2022-10-19T00:41:31;101179.72;;;11.05
70819;BMP280;58439;51.046;13.692;2022-10-19T00:47:06;101176.44;;;10.94
70819;BMP280;58439;51.046;13.692;2022-10-19T00:49:39;101169.56;;;10.85
70819;BMP280;58439;51.046;13.692;2022-10-19T00:52:12;101171.53;;;10.83
70819;BMP280;58439;51.046;13.692;2022-10-19T00:54:43;101171.53;;;10.83
70819;BMP280;58439;51.046;13.692;2022-10-19T00:57:11;101175.63;;;10.78
70819;BMP280;58439;51.046;13.692;2022-10-19T00:59:42;101172.69;;;10.81
70819;BMP280;58439;51.046;13.692;2022-10-19T01:02:10;101176.94;;;10.82
70819;BMP280;58439;51.046;13.692;2022-10-19T01:04:41;101173.84;;;10.78
70819;BMP280;58439;51.046;13.692;2022-10-19T01:07:11;101176.31;;;10.80
70819;BMP280;58439;51.046;13.692;2022-10-19T01:09:39;101172.69;;;10.81
70819;BMP280;58439;51.046;13.692;2022-10-19T01:12:30;101170.88;;;10.81
70819;BMP280;58439;51.046;13.692;2022-10-19T01:20:57;101157.97;;;10.71
70819;BMP280;58439;51.046;13.692;2022-10-19T01:26:31;101153.91;;;10.61
70819;BMP280;58439;51.046;13.692;2022-10-19T01:29:21;101151.41;;;10.51
70819;BMP280;58439;51.046;13.692;2022-10-19T01:32:20;101155.19;;;10.48
70819;BMP280;58439;51.046;13.692;2022-10-19T01:37:47;101149.97;;;10.40
70819;BMP280;58439;51.046;13.692;2022-10-19T01:40:26;101137.53;;;10.26
70819;BMP280;58439;51.046;13.692;2022-10-19T01:43:01;101141.47;;;10.30
70819;BMP280;58439;51.046;13.692;2022-10-19T01:45:43;101150.94;;;10.23
70819;BMP280;58439;51.046;13.692;2022-10-19T01:48:22;101150.13;;;10.23
70819;BMP280;58439;51.046;13.692;2022-10-19T01:51:02;101147.00;;;10.19
70819;BMP280;58439;51.046;13.692;2022-10-19T01:53:41;101146.34;;;10.17
70819;BMP280;58439;51.046;13.692;2022-10-19T01:56:11;101146.97;;;10.03
70819;BMP280;58439;51.046;13.692;2022-10-19T01:58:43;101156.09;;;9.99
70819;BMP280;58439;51.046;13.692;2022-10-19T02:01:15;101151.03;;;9.89
70819;BMP280;58439;51.046;13.692;2022-10-19T02:03:48;101162.91;;;9.83
70819;BMP280;58439;51.046;13.692;2022-10-19T02:06:16;101151.84;;;9.89
70819;BMP280;58439;51.046;13.692;2022-10-19T02:08:49;101155.81;;;10.02
70819;BMP280;58439;51.046;13.692;2022-10-19T02:11:18;101161.88;;;10.18
70819;BMP280;58439;51.046;13.692;2022-10-19T02:13:52;101156.19;;;10.31
70819;BMP280;58439;51.046;13.692;2022-10-19T02:16:31;101154.03;;;10.35
70819;BMP280;58439;51.046;13.692;2022-10-19T02:19:01;101156.50;;;10.28
70819;BMP280;58439;51.046;13.692;2022-10-19T02:21:30;101149.28;;;10.14
70819;BMP280;58439;51.046;13.692;2022-10-19T02:23:57;101142.41;;;9.97
70819;BMP280;58439;51.046;13.692;2022-10-19T02:26:24;101147.59;;;9.88
70819;BMP280;58439;51.046;13.692;2022-10-19T02:28:54;101144.97;;;9.88
70819;BMP280;58439;51.046;13.692;2022-10-19T02:31:23;101147.75;;;9.87
70819;BMP280;58439;51.046;13.692;2022-10-19T02:33:52;101152.47;;;9.83
70819;BMP280;58439;51.046;13.692;2022-10-19T02:36:19;101144.16;;;9.80
70819;BMP280;58439;51.046;13.692;2022-10-19T02:38:47;101154.13;;;9.92
70819;BMP280;58439;51.046;13.692;2022-10-19T02:41:36;101148.47;;;10.13
70819;BMP280;58439;51.046;13.692;2022-10-19T02:44:18;101148.34;;;10.39
70819;BMP280;58439;51.046;13.692;2022-10-19T02:47:19;101149.19;;;10.48
70819;BMP280;58439;51.046;13.692;2022-10-19T02:49:49;101153.09;;;10.52
70819;BMP280;58439;51.046;13.692;2022-10-19T02:52:17;101150.13;;;10.55
70819;BMP280;58439;51.046;13.692;2022-10-19T02:54:45;101154.84;;;10.52
70819;BMP280;58439;51.046;13.692;2022-10-19T02:57:22;101150.28;;;10.54
70819;BMP280;58439;51.046;13.692;2022-10-19T02:59:51;101148.66;;;10.61
70819;BMP280;58439;51.046;13.692;2022-10-19T03:02:19;101145.53;;;10.65
70819;BMP280;58439;51.046;13.692;2022-10-19T03:04:46;101147.50;;;10.71
70819;BMP280;58439;51.046;13.692;2022-10-19T03:07:20;101146.69;;;10.79
70819;BMP280;58439;51.046;13.692;2022-10-19T03:09:48;101145.84;;;10.79
70819;BMP280;58439;51.046;13.692;2022-10-19T03:12:15;101152.75;;;10.80
70819;BMP280;58439;51.046;13.692;2022-10-19T03:14:43;101140.47;;;10.80
70819;BMP280;58439;51.046;13.692;2022-10-19T03:17:11;101130.47;;;10.75
70819;BMP280;58439;51.046;13.692;2022-10-19T03:19:38;101133.75;;;10.78
70819;BMP280;58439;51.046;13.692;2022-10-19T03:22:05;101141.44;;;10.79
70819;BMP280;58439;51.046;13.692;2022-10-19T03:24:32;101134.88;;;10.75
70819;BMP280;58439;51.046;13.692;2022-10-19T03:27:00;101134.06;;;10.74
70819;BMP280;58439;51.046;13.692;2022-10-19T03:29:27;101132.94;;;10.77
70819;BMP280;58439;51.046;13.692;2022-10-19T03:31:54;101131.44;;;10.83
70819;BMP280;58439;51.046;13.692;2022-10-19T03:34:21;101131.81;;;10.80
70819;BMP280;58439;51.046;13.692;2022-10-19T03:36:48;101133.59;;;10.79
70819;BMP280;58439;51.046;13.692;2022-10-19T03:39:16;101133.59;;;10.79
70819;BMP280;58439;51.046;13.692;2022-10-19T03:41:44;101141.91;;;10.74
70819;BMP280;58439;51.046;13.692;2022-10-19T03:44:11;101139.81;;;10.70
70819;BMP280;58439;51.046;13.692;2022-10-19T03:46:39;101148.97;;;10.74
70819;BMP280;58439;51.046;13.692;2022-10-19T03:49:09;101153.72;;;10.79
70819;BMP280;58439;51.046;13.692;2022-10-19T03:51:37;101161.06;;;10.75
70819;BMP280;58439;51.046;13.692;2022-10-19T03:54:10;101156.50;;;10.69
70819;BMP280;58439;51.046;13.692;2022-10-19T03:56:38;101160.75;;;10.70
70819;BMP280;58439;51.046;13.692;2022-10-19T03:59:06;101155.00;;;10.74
70819;BMP280;58439;51.046;13.692;2022-10-19T04:01:36;101162.38;;;10.87
70819;BMP280;58439;51.046;13.692;2022-10-19T04:04:12;101159.75;;;11.03
70819;BMP280;58439;51.046;13.692;2022-10-19T04:06:43;101164.00;;;11.05
70819;BMP280;58439;51.046;13.692;2022-10-19T04:09:17;101164.97;;;11.03
70819;BMP280;58439;51.046;13.692;2022-10-19T04:11:45;101160.06;;;11.00
70819;BMP280;58439;51.046;13.692;2022-10-19T04:14:15;101160.38;;;10.97
70819;BMP280;58439;51.046;13.692;2022-10-19T04:17:00;101160.06;;;10.92
70819;BMP280;58439;51.046;13.692;2022-10-19T04:19:30;101163.03;;;10.89
70819;BMP280;58439;51.046;13.692;2022-10-19T04:21:57;101163.03;;;10.89
70819;BMP280;58439;51.046;13.692;2022-10-19T04:24:25;101166.28;;;10.91
70819;BMP280;58439;51.046;13.692;2022-10-19T04:26:54;101170.91;;;10.89
70819;BMP280;58439;51.046;13.692;2022-10-19T04:29:24;101167.59;;;10.87
70819;BMP280;58439;51.046;13.692;2022-10-19T04:31:57;101166.78;;;10.87
70819;BMP280;58439;51.046;13.692;2022-10-19T04:34:24;101168.06;;;10.91
70819;BMP280;58439;51.046;13.692;2022-10-19T04:36:52;101166.97;;;10.85
70819;BMP280;58439;51.046;13.692;2022-10-19T04:39:20;101171.06;;;10.80
70819;BMP280;58439;51.046;13.692;2022-10-19T04:41:47;101176.63;;;10.77
70819;BMP280;58439;51.046;13.692;2022-10-19T04:44:14;101174.50;;;10.80
70819;BMP280;58439;51.046;13.692;2022-10-19T04:46:41;101180.03;;;10.85
70819;BMP280;58439;51.046;13.692;2022-10-19T04:49:08;101173.69;;;10.88
70819;BMP280;58439;51.046;13.692;2022-10-19T04:51:37;101176.91;;;10.90
70819;BMP280;58439;51.046;13.692;2022-10-19T04:54:04;101175.78;;;10.92
70819;BMP280;58439;51.046;13.692;2022-10-19T04:56:31;101184.59;;;10.91
70819;BMP280;58439;51.046;13.692;2022-10-19T04:58:59;101177.25;;;10.87
70819;BMP280;58439;51.046;13.692;2022-10-19T05:01:30;101186.59;;;10.89
70819;BMP280;58439;51.046;13.692;2022-10-19T05:04:01;101184.97;;;10.88
70819;BMP280;58439;51.046;13.692;2022-10-19T05:06:30;101188.41;;;10.89
70819;BMP280;58439;51.046;13.692;2022-10-19T05:09:00;101178.69;;;10.97
70819;BMP280;58439;51.046;13.692;2022-10-19T05:11:27;101186.88;;;11.02
70819;BMP280;58439;51.046;13.692;2022-10-19T05:13:55;101189.19;;;10.97
70819;BMP280;58439;51.046;13.692;2022-10-19T05:16:23;101182.34;;;10.96
70819;BMP280;58439;51.046;13.692;2022-10-19T05:18:55;101186.75;;;10.96
70819;BMP280;58439;51.046;13.692;2022-10-19T05:21:27;101185.44;;;10.92
70819;BMP280;58439;51.046;13.692;2022-10-19T05:23:56;101184.75;;;10.90
70819;BMP280;58439;51.046;13.692;2022-10-19T05:26:26;101175.78;;;10.84
70819;BMP280;58439;51.046;13.692;2022-10-19T05:28:58;101180.34;;;10.82
70819;BMP280;58439;51.046;13.692;2022-10-19T05:31:31;101183.97;;;10.81
70819;BMP280;58439;51.046;13.692;2022-10-19T05:33:59;101186.25;;;10.84
70819;BMP280;58439;51.046;13.692;2022-10-19T05:36:36;101186.25;;;10.84
70819;BMP280;58439;51.046;13.692;2022-10-19T05:39:09;101187.38;;;10.90
70819;BMP280;58439;51.046;13.692;2022-10-19T05:41:38;101188.72;;;10.86
70819;BMP280;58439;51.046;13.692;2022-10-19T05:44:05;101196.41;;;10.79
70819;BMP280;58439;51.046;13.692;2022-10-19T05:46:33;101199.03;;;10.71
70819;BMP280;58439;51.046;13.692;2022-10-19T05:49:00;101196.41;;;10.71
70819;BMP280;58439;51.046;13.692;2022-10-19T05:51:28;101196.75;;;10.68
70819;BMP280;58439;51.046;13.692;2022-10-19T05:53:56;101203.75;;;10.75
70819;BMP280;58439;51.046;13.692;2022-10-19T05:56:28;101200.31;;;10.75
70819;BMP280;58439;51.046;13.692;2022-10-19T05:58:58;101202.63;;;10.78
70819;BMP280;58439;51.046;13.692;2022-10-19T06:01:28;101206.06;;;10.87
70819;BMP280;58439;51.046;13.692;2022-10-19T06:03:57;101213.38;;;10.91
70819;BMP280;58439;51.046;13.692;2022-10-19T06:06:26;101210.31;;;10.96
70819;BMP280;58439;51.046;13.692;2022-10-19T06:08:55;101201.47;;;10.97
70819;BMP280;58439;51.046;13.692;2022-10-19T06:11:27;101206.50;;;10.98
70819;BMP280;58439;51.046;13.692;2022-10-19T06:13:57;101207.19;;;11.00
70819;BMP280;58439;51.046;13.692;2022-10-19T06:16:26;101211.13;;;11.05
70819;BMP280;58439;51.046;13.692;2022-10-19T06:18:55;101205.53;;;11.08
70819;BMP280;58439;51.046;13.692;2022-10-19T06:21:26;101209.78;;;11.09
70819;BMP280;58439;51.046;13.692;2022-10-19T06:24:01;101213.41;;;11.08
70819;BMP280;58439;51.046;13.692;2022-10-19T06:26:32;101207.50;;;10.97
70819;BMP280;58439;51.046;13.692;2022-10-19T06:29:01;101210.78;;;10.83
70819;BMP280;58439;51.046;13.692;2022-10-19T06:31:31;101214.09;;;10.69
70819;BMP280;58439;51.046;13.692;2022-10-19T06:33:59;101214.59;;;10.64
70819;BMP280;58439;51.046;13.692;2022-10-19T06:36:31;101222.06;;;10.67
70819;BMP280;58439;51.046;13.692;2022-10-19T06:38:59;101218.63;;;10.75
70819;BMP280;58439;51.046;13.692;2022-10-19T06:41:31;101216.00;;;10.83
70819;BMP280;58439;51.046;13.692;2022-10-19T06:44:17;101218.97;;;11.13
70819;BMP280;58439;51.046;13.692;2022-10-19T06:46:48;101223.63;;;11.42
70819;BMP280;58439;51.046;13.692;2022-10-19T06:49:15;101223.22;;;11.61
70819;BMP280;58439;51.046;13.692;2022-10-19T06:51:49;101234.19;;;11.73
70819;BMP280;58439;51.046;13.692;2022-10-19T06:54:16;101234.72;;;11.99
70819;BMP280;58439;51.046;13.692;2022-10-19T06:59:54;101234.84;;;12.29
70819;BMP280;58439;51.046;13.692;2022-10-19T07:02:21;101228.91;;;12.35
70819;BMP280;58439;51.046;13.692;2022-10-19T07:04:49;101232.56;;;12.49
70819;BMP280;58439;51.046;13.692;2022-10-19T07:07:17;101229.06;;;12.56
70819;BMP280;58439;51.046;13.692;2022-10-19T07:09:44;101237.50;;;12.52
70819;BMP280;58439;51.046;13.692;2022-10-19T07:12:17;101236.69;;;12.51
70819;BMP280;58439;51.046;13.692;2022-10-19T07:14:45;101239.31;;;12.51
70819;BMP280;58439;51.046;13.692;2022-10-19T07:17:23;101238.50;;;12.51
70819;BMP280;58439;51.046;13.692;2022-10-19T07:19:50;101244.34;;;12.53
70819;BMP280;58439;51.046;13.692;2022-10-19T07:22:17;101240.41;;;12.57
70819;BMP280;58439;51.046;13.692;2022-10-19T07:24:53;101236.88;;;12.64
70819;BMP280;58439;51.046;13.692;2022-10-19T07:27:27;101244.53;;;12.74
70819;BMP280;58439;51.046;13.692;2022-10-19T07:30:21;101248.63;;;12.91
70819;BMP280;58439;51.046;13.692;2022-10-19T07:32:49;101260.53;;;13.02
70819;BMP280;58439;51.046;13.692;2022-10-19T07:35:16;101264.34;;;13.14
70819;BMP280;58439;51.046;13.692;2022-10-19T07:37:43;101260.47;;;13.25
70819;BMP280;58439;51.046;13.692;2022-10-19T07:40:11;101263.81;;;13.34
70819;BMP280;58439;51.046;13.692;2022-10-19T07:42:39;101253.78;;;13.37
70819;BMP280;58439;51.046;13.692;2022-10-19T07:45:09;101265.44;;;13.35
70819;BMP280;58439;51.046;13.692;2022-10-19T07:47:40;101270.50;;;13.21
70819;BMP280;58439;51.046;13.692;2022-10-19T07:50:08;101268.66;;;13.07
70819;BMP280;58439;51.046;13.692;2022-10-19T07:52:38;101267.28;;;12.96
70819;BMP280;58439;51.046;13.692;2022-10-19T07:55:06;101264.59;;;12.90
70819;BMP280;58439;51.046;13.692;2022-10-19T07:57:35;101265.22;;;12.92
70819;BMP280;58439;51.046;13.692;2022-10-19T08:00:03;101268.97;;;12.97
70819;BMP280;58439;51.046;13.692;2022-10-19T08:02:39;101273.53;;;12.95
70819;BMP280;58439;51.046;13.692;2022-10-19T08:05:34;101271.00;;;12.87
70819;BMP280;58439;51.046;13.692;2022-10-19T08:08:02;101275.94;;;13.05
70819;BMP280;58439;51.046;13.692;2022-10-19T08:10:30;101275.66;;;13.00
70819;BMP280;58439;51.046;13.692;2022-10-19T08:12:57;101280.09;;;12.99
70819;BMP280;58439;51.046;13.692;2022-10-19T08:15:24;101280.81;;;13.08
70819;BMP280;58439;51.046;13.692;2022-10-19T08:17:52;101280.47;;;13.11
70819;BMP280;58439;51.046;13.692;2022-10-19T08:20:22;101284.78;;;13.04
70819;BMP280;58439;51.046;13.692;2022-10-19T08:22:49;101293.69;;;13.03
70819;BMP280;58439;51.046;13.692;2022-10-19T08:25:24;101288.09;;;13.06
70819;BMP280;58439;51.046;13.692;2022-10-19T08:27:52;101290.63;;;13.14
70819;BMP280;58439;51.046;13.692;2022-10-19T08:30:19;101289.00;;;13.13
70819;BMP280;58439;51.046;13.692;2022-10-19T08:32:46;101296.41;;;13.10
70819;BMP280;58439;51.046;13.692;2022-10-19T08:35:14;101287.34;;;13.12
70819;BMP280;58439;51.046;13.692;2022-10-19T08:37:41;101300.50;;;13.12
70819;BMP280;58439;51.046;13.692;2022-10-19T08:40:24;101295.59;;;13.09
70819;BMP280;58439;51.046;13.692;2022-10-19T08:43:08;101297.06;;;13.12
70819;BMP280;58439;51.046;13.692;2022-10-19T08:48:41;101285.38;;;13.29
70819;BMP280;58439;51.046;13.692;2022-10-19T08:51:11;101285.56;;;13.42
70819;BMP280;58439;51.046;13.692;2022-10-19T08:53:53;101290.19;;;13.55
70819;BMP280;58439;51.046;13.692;2022-10-19T08:56:50;101284.84;;;13.63
70819;BMP280;58439;51.046;13.692;2022-10-19T08:59:58;101282.41;;;13.76
70819;BMP280;58439;51.046;13.692;2022-10-19T09:06:47;101280.31;;;14.44
70819;BMP280;58439;51.046;13.692;2022-10-19T09:09:19;101278.91;;;14.48
70819;BMP280;58439;51.046;13.692;2022-10-19T09:11:50;101279.59;;;14.57
70819;BMP280;58439;51.046;13.692;2022-10-19T09:14:52;101285.06;;;14.55
70819;BMP280;58439;51.046;13.692;2022-10-19T09:17:22;101280.59;;;14.56
70819;BMP280;58439;51.046;13.692;2022-10-19T09:19:51;101279.25;;;14.66
70819;BMP280;58439;51.046;13.692;2022-10-19T09:22:33;101289.63;;;14.68
70819;BMP280;58439;51.046;13.692;2022-10-19T09:25:13;101278.84;;;14.63
70819;BMP280;58439;51.046;13.692;2022-10-19T09:27:45;101277.56;;;14.80
70819;BMP280;58439;51.046;13.692;2022-10-19T09:30:23;101276.06;;;14.71
70819;BMP280;58439;51.046;13.692;2022-10-19T09:33:02;101275.81;;;14.66
70819;BMP280;58439;51.046;13.692;2022-10-19T09:35:36;101284.22;;;14.76
70819;BMP280;58439;51.046;13.692;2022-10-19T09:38:07;101288.03;;;14.73
70819;BMP280;58439;51.046;13.692;2022-10-19T09:40:36;101279.41;;;14.37
70819;BMP280;58439;51.046;13.692;2022-10-19T09:43:06;101279.44;;;14.22
70819;BMP280;58439;51.046;13.692;2022-10-19T09:45:54;101291.00;;;14.42
70819;BMP280;58439;51.046;13.692;2022-10-19T09:48:52;101285.69;;;14.85
70819;BMP280;58439;51.046;13.692;2022-10-19T09:51:20;101283.91;;;15.20
70819;BMP280;58439;51.046;13.692;2022-10-19T09:53:52;101286.53;;;15.55
70819;BMP280;58439;51.046;13.692;2022-10-19T09:56:24;101278.38;;;15.43
70819;BMP280;58439;51.046;13.692;2022-10-19T09:58:55;101292.81;;;15.54
70819;BMP280;58439;51.046;13.692;2022-10-19T10:02:35;101295.88;;;15.57
70819;BMP280;58439;51.046;13.692;2022-10-19T10:04:32;101289.03;;;15.70
70819;BMP280;58439;51.046;13.692;2022-10-19T10:07:14;101292.72;;;15.82
70819;BMP280;58439;51.046;13.692;2022-10-19T10:09:43;101292.75;;;15.88
70819;BMP280;58439;51.046;13.692;2022-10-19T10:12:13;101296.88;;;16.11
70819;BMP280;58439;51.046;13.692;2022-10-19T10:14:44;101290.41;;;16.33
70819;BMP280;58439;51.046;13.692;2022-10-19T10:17:15;101289.63;;;16.52
70819;BMP280;58439;51.046;13.692;2022-10-19T10:22:28;101285.91;;;16.86
70819;BMP280;58439;51.046;13.692;2022-10-19T10:24:56;101296.44;;;16.07
70819;BMP280;58439;51.046;13.692;2022-10-19T10:27:36;101295.28;;;15.69
70819;BMP280;58439;51.046;13.692;2022-10-19T10:30:16;101289.19;;;15.55
70819;BMP280;58439;51.046;13.692;2022-10-19T10:32:52;101288.28;;;15.82
70819;BMP280;58439;51.046;13.692;2022-10-19T10:35:30;101287.41;;;18.42
70819;BMP280;58439;51.046;13.692;2022-10-19T10:38:16;101286.53;;;18.23
70819;BMP280;58439;51.046;13.692;2022-10-19T10:40:58;101284.69;;;17.92
70819;BMP280;58439;51.046;13.692;2022-10-19T10:43:34;101291.72;;;17.28
70819;BMP280;58439;51.046;13.692;2022-10-19T10:46:14;101285.72;;;16.55
70819;BMP280;58439;51.046;13.692;2022-10-19T10:48:51;101283.59;;;15.78
70819;BMP280;58439;51.046;13.692;2022-10-19T10:51:42;101285.50;;;15.15
70819;BMP280;58439;51.046;13.692;2022-10-19T10:54:28;101287.34;;;14.86
70819;BMP280;58439;51.046;13.692;2022-10-19T10:57:09;101289.69;;;14.74
70819;BMP280;58439;51.046;13.692;2022-10-19T10:59:49;101285.31;;;14.88
70819;BMP280;58439;51.046;13.692;2022-10-19T11:02:30;101293.31;;;14.73
70819;BMP280;58439;51.046;13.692;2022-10-19T11:05:24;101303.19;;;14.43
70819;BMP280;58439;51.046;13.692;2022-10-19T11:08:46;101294.38;;;14.15
70819;BMP280;58439;51.046;13.692;2022-10-19T11:11:33;101304.50;;;13.82
70819;BMP280;58439;51.046;13.692;2022-10-19T11:16:57;101305.25;;;13.76
70819;BMP280;58439;51.046;13.692;2022-10-19T11:19:34;101299.69;;;13.85
70819;BMP280;58439;51.046;13.692;2022-10-19T11:30:31;101293.47;;;14.44
70819;BMP280;58439;51.046;13.692;2022-10-19T11:33:52;101294.13;;;14.53
70819;BMP280;58439;51.046;13.692;2022-10-19T11:39:34;101297.97;;;14.99
70819;BMP280;58439;51.046;13.692;2022-10-19T11:42:40;101281.66;;;15.11
70819;BMP280;58439;51.046;13.692;2022-10-19T11:45:50;101288.50;;;15.12
70819;BMP280;58439;51.046;13.692;2022-10-19T11:51:37;101293.44;;;15.49
70819;BMP280;58439;51.046;13.692;2022-10-19T11:54:25;101284.88;;;15.13
70819;BMP280;58439;51.046;13.692;2022-10-19T11:57:16;101287.09;;;14.81
70819;BMP280;58439;51.046;13.692;2022-10-19T12:00:13;101282.00;;;14.58
70819;BMP280;58439;51.046;13.692;2022-10-19T12:03:24;101280.06;;;14.39
70819;BMP280;58439;51.046;13.692;2022-10-19T12:07:07;101273.81;;;14.25
70819;BMP280;58439;51.046;13.692;2022-10-19T12:12:40;101262.28;;;14.47
70819;BMP280;58439;51.046;13.692;2022-10-19T12:15:28;101255.66;;;14.52
70819;BMP280;58439;51.046;13.692;2022-10-19T12:18:05;101257.38;;;14.66
70819;BMP280;58439;51.046;13.692;2022-10-19T12:21:02;101256.56;;;14.87
70819;BMP280;58439;51.046;13.692;2022-10-19T12:23:38;101261.66;;;14.95
70819;BMP280;58439;51.046;13.692;2022-10-19T12:26:10;101264.75;;;14.98
70819;BMP280;58439;51.046;13.692;2022-10-19T12:28:46;101257.19;;;14.95
70819;BMP280;58439;51.046;13.692;2022-10-19T12:31:15;101253.94;;;14.93
70819;BMP280;58439;51.046;13.692;2022-10-19T12:33:56;101260.28;;;14.99
70819;BMP280;58439;51.046;13.692;2022-10-19T12:36:50;101257.34;;;14.94
70819;BMP280;58439;51.046;13.692;2022-10-19T12:43:02;101259.97;;;14.59
70819;BMP280;58439;51.046;13.692;2022-10-19T12:45:40;101260.63;;;14.40
70819;BMP280;58439;51.046;13.692;2022-10-19T12:53:34;101260.22;;;14.00
70819;BMP280;58439;51.046;13.692;2022-10-19T12:56:23;101256.03;;;13.91
70819;BMP280;58439;51.046;13.692;2022-10-19T12:58:59;101254.06;;;13.78
70819;BMP280;58439;51.046;13.692;2022-10-19T13:04:22;101254.97;;;13.85
70819;BMP280;58439;51.046;13.692;2022-10-19T13:07:03;101249.25;;;13.97
70819;BMP280;58439;51.046;13.692;2022-10-19T13:09:46;101246.63;;;13.97
70819;BMP280;58439;51.046;13.692;2022-10-19T13:14:56;101244.34;;;13.94
70819;BMP280;58439;51.046;13.692;2022-10-19T13:25:38;101229.31;;;14.30
70819;BMP280;58439;51.046;13.692;2022-10-19T13:41:22;101229.06;;;14.04
70819;BMP280;58439;51.046;13.692;2022-10-19T13:54:27;101227.41;;;13.81
70819;BMP280;58439;51.046;13.692;2022-10-19T14:28:22;101197.75;;;13.87
70819;BMP280;58439;51.046;13.692;2022-10-19T14:31:18;101206.03;;;13.91
70819;BMP280;58439;51.046;13.692;2022-10-19T14:34:46;101204.91;;;13.79
70819;BMP280;58439;51.046;13.692;2022-10-19T14:37:25;101206.69;;;13.72
70819;BMP280;58439;51.046;13.692;2022-10-19T14:40:41;101206.53;;;13.58
70819;BMP280;58439;51.046;13.692;2022-10-19T15:02:34;101194.59;;;13.26
70819;BMP280;58439;51.046;13.692;2022-10-19T15:05:19;101193.69;;;13.19
70819;BMP280;58439;51.046;13.692;2022-10-19T15:07:48;101199.03;;;13.11
70819;BMP280;58439;51.046;13.692;2022-10-19T15:10:27;101193.69;;;13.19
70819;BMP280;58439;51.046;13.692;2022-10-19T15:52:47;101174.63;;;12.35
70819;BMP280;58439;51.046;13.692;2022-10-19T15:55:32;101179.28;;;12.25
70819;BMP280;58439;51.046;13.692;2022-10-19T15:58:00;101178.19;;;12.20
70819;BMP280;58439;51.046;13.692;2022-10-19T16:00:28;101178.88;;;12.13
70819;BMP280;58439;51.046;13.692;2022-10-19T16:02:56;101171.72;;;12.07
70819;BMP280;58439;51.046;13.692;2022-10-19T16:05:24;101175.22;;;12.00
70819;BMP280;58439;51.046;13.692;2022-10-19T16:07:51;101173.78;;;11.89
70819;BMP280;58439;51.046;13.692;2022-10-19T16:10:26;101180.41;;;11.77
70819;BMP280;58439;51.046;13.692;2022-10-19T16:12:58;101182.13;;;11.62
70819;BMP280;58439;51.046;13.692;2022-10-19T16:15:25;101179.41;;;11.47
70819;BMP280;58439;51.046;13.692;2022-10-19T16:17:59;101186.13;;;11.41
70819;BMP280;58439;51.046;13.692;2022-10-19T16:20:58;101176.50;;;11.34
70819;BMP280;58439;51.046;13.692;2022-10-19T16:29:06;101193.09;;;11.10
70819;BMP280;58439;51.046;13.692;2022-10-19T16:31:38;101186.38;;;10.99
70819;BMP280;58439;51.046;13.692;2022-10-19T16:34:06;101186.25;;;10.92
70819;BMP280;58439;51.046;13.692;2022-10-19T16:36:52;101190.34;;;10.79
70819;BMP280;58439;51.046;13.692;2022-10-19T16:40:58;101195.44;;;10.72
70819;BMP280;58439;51.046;13.692;2022-10-19T16:44:42;101190.53;;;10.69
70819;BMP280;58439;51.046;13.692;2022-10-19T16:47:42;101182.16;;;10.65
70819;BMP280;58439;51.046;13.692;2022-10-19T17:19:39;101211.34;;;10.04
70819;BMP280;58439;51.046;13.692;2022-10-19T17:22:57;101212.13;;;9.96
70819;BMP280;58439;51.046;13.692;2022-10-19T17:26:18;101212.28;;;9.86
70819;BMP280;58439;51.046;13.692;2022-10-19T17:30:05;101221.81;;;9.61
70819;BMP280;58439;51.046;13.692;2022-10-19T17:33:31;101220.44;;;9.49
70819;BMP280;58439;51.046;13.692;2022-10-19T17:37:32;101220.38;;;9.41
70819;BMP280;58439;51.046;13.692;2022-10-19T17:40:00;101214.66;;;9.38
70819;BMP280;58439;51.046;13.692;2022-10-19T17:42:28;101215.09;;;9.33
70819;BMP280;58439;51.046;13.692;2022-10-19T17:44:55;101222.28;;;9.31
70819;BMP280;58439;51.046;13.692;2022-10-19T17:47:23;101224.31;;;9.19
70819;BMP280;58439;51.046;13.692;2022-10-19T17:49:50;101222.56;;;9.02
70819;BMP280;58439;51.046;13.692;2022-10-19T17:52:17;101226.50;;;8.88
70819;BMP280;58439;51.046;13.692;2022-10-19T17:54:47;101233.09;;;8.74
70819;BMP280;58439;51.046;13.692;2022-10-19T17:57:35;101227.53;;;8.77
70819;BMP280;58439;51.046;13.692;2022-10-19T18:00:05;101227.41;;;8.79
70819;BMP280;58439;51.046;13.692;2022-10-19T18:02:38;101230.47;;;8.74
70819;BMP280;58439;51.046;13.692;2022-10-19T18:05:07;101228.44;;;8.68
70819;BMP280;58439;51.046;13.692;2022-10-19T18:07:34;101231.63;;;8.62
70819;BMP280;58439;51.046;13.692;2022-10-19T18:46:07;101229.84;;;7.90
70819;BMP280;58439;51.046;13.692;2022-10-19T18:48:42;101218.88;;;7.86
70819;BMP280;58439;51.046;13.692;2022-10-19T18:51:19;101225.34;;;7.82